createdAt,value
2018-06-20T00:00:29.067Z,95726.09
2018-06-20T00:02:58.271Z,95726.00
2018-06-20T00:05:27.586Z,95721.41
2018-06-20T00:07:56.825Z,95721.41
2018-06-20T00:10:26.026Z,95715.19
2018-06-20T00:12:55.277Z,95710.53
2018-06-20T00:15:24.491Z,95711.88
2018-06-20T00:17:53.682Z,95710.93
2018-06-20T00:20:22.875Z,95711.76
2018-06-20T00:22:52.053Z,95710.47
2018-06-20T00:25:21.326Z,95703.39
2018-06-20T00:27:50.505Z,95708.33
2018-06-20T00:30:19.722Z,95705.87
2018-06-20T00:32:48.914Z,95709.66
2018-06-20T00:35:18.132Z,95710.17
2018-06-20T00:37:47.315Z,95706.40
2018-06-20T00:40:16.527Z,95703.77
2018-06-20T00:42:45.805Z,95706.56
2018-06-20T00:45:15.015Z,95706.33
2018-06-20T00:47:44.215Z,95697.31
2018-06-20T00:50:13.514Z,95693.05
2018-06-20T00:52:42.695Z,95690.22
2018-06-20T00:55:11.905Z,95691.53
2018-06-20T00:57:41.126Z,95694.03
2018-06-20T01:00:10.331Z,95692.91
2018-06-20T01:02:39.527Z,95694.55
2018-06-20T01:05:08.748Z,95690.59
2018-06-20T01:07:37.959Z,95689.44
2018-06-20T01:10:07.813Z,95693.23
2018-06-20T01:12:36.995Z,95682.88
2018-06-20T01:15:06.280Z,95687.50
2018-06-20T01:17:35.499Z,95687.82
2018-06-20T01:20:04.687Z,95689.78
2018-06-20T01:22:33.876Z,95692.09
2018-06-20T01:25:03.081Z,95691.11
2018-06-20T01:27:32.293Z,95686.97
2018-06-20T01:30:01.483Z,95687.45
2018-06-20T01:32:30.732Z,95687.02
2018-06-20T01:34:59.927Z,95676.97
2018-06-20T01:37:29.123Z,95683.23
2018-06-20T01:39:58.328Z,95680.59
2018-06-20T01:42:27.571Z,95679.61
2018-06-20T01:44:56.781Z,95673.54
2018-06-20T01:47:26.127Z,95684.48
2018-06-20T01:49:55.340Z,95680.27
2018-06-20T01:52:24.303Z,95683.55
2018-06-20T01:54:53.491Z,95683.50
2018-06-20T01:57:22.686Z,95680.70
2018-06-20T01:59:51.915Z,95676.31
2018-06-20T02:02:21.122Z,95684.16
2018-06-20T02:04:50.310Z,95678.58
2018-06-20T02:07:19.526Z,95682.39
2018-06-20T02:09:48.739Z,95683.34
2018-06-20T02:12:17.954Z,95681.03
2018-06-20T02:14:47.194Z,95672.80
2018-06-20T02:17:16.383Z,95680.06
2018-06-20T02:19:45.611Z,95678.76
2018-06-20T02:22:14.835Z,95673.97
2018-06-20T02:24:44.028Z,95673.79
2018-06-20T02:27:13.243Z,95677.23
2018-06-20T02:29:43.086Z,95673.44
2018-06-20T02:32:12.318Z,95668.98
2018-06-20T02:34:44.365Z,95671.30
2018-06-20T02:37:13.609Z,95673.09
2018-06-20T02:39:42.896Z,95668.80
2018-06-20T02:42:12.097Z,95677.19
2018-06-20T02:44:41.402Z,95673.27
2018-06-20T02:47:10.598Z,95670.48
2018-06-20T02:49:39.791Z,95667.34
2018-06-20T02:52:09.071Z,95671.63
2018-06-20T02:54:38.269Z,95667.34
2018-06-20T02:57:07.473Z,95666.54
2018-06-20T02:59:36.690Z,95664.53
2018-06-20T03:02:05.891Z,95660.77
2018-06-20T03:04:35.076Z,95664.22
2018-06-20T03:07:04.306Z,95664.22
2018-06-20T03:09:33.502Z,95669.02
2018-06-20T03:12:02.710Z,95663.58
2018-06-20T03:14:31.939Z,95655.82
2018-06-20T03:17:01.157Z,95663.86
2018-06-20T03:19:30.913Z,95661.89
2018-06-20T03:22:00.186Z,95662.36
2018-06-20T03:24:29.403Z,95667.30
2018-06-20T03:26:58.603Z,95667.95
2018-06-20T03:29:27.788Z,95664.70
2018-06-20T03:31:57.027Z,95667.66
2018-06-20T03:34:26.302Z,95662.55
2018-06-20T03:36:55.687Z,95662.55
2018-06-20T03:39:24.894Z,95662.40
2018-06-20T03:41:54.162Z,95658.50
2018-06-20T03:44:23.474Z,95661.12
2018-06-20T03:46:52.677Z,95659.48
2018-06-20T03:49:21.900Z,95657.32
2018-06-20T03:51:51.134Z,95664.23
2018-06-20T03:54:20.338Z,95662.58
2018-06-20T03:56:49.749Z,95664.05
2018-06-20T03:59:18.945Z,95666.55
2018-06-20T04:01:48.190Z,95654.89
2018-06-20T04:04:17.391Z,95653.91
2018-06-20T04:06:46.967Z,95662.61
2018-06-20T04:09:16.151Z,95658.03
2018-06-20T04:11:45.345Z,95653.42
2018-06-20T04:14:14.555Z,95658.67
2018-06-20T04:16:43.778Z,95658.36
2018-06-20T04:19:12.978Z,95657.25
2018-06-20T04:21:42.217Z,95657.73
2018-06-20T04:24:11.406Z,95654.75
2018-06-20T04:26:40.596Z,95653.27
2018-06-20T04:29:09.849Z,95648.14
2018-06-20T04:31:39.034Z,95655.19
2018-06-20T04:34:08.441Z,95650.07
2018-06-20T04:36:37.643Z,95644.77
2018-06-20T04:39:09.559Z,95653.42
2018-06-20T04:41:38.755Z,95649.75
2018-06-20T04:44:07.986Z,95649.33
2018-06-20T04:46:37.200Z,95645.05
2018-06-20T04:49:06.461Z,95644.77
2018-06-20T04:51:35.658Z,95639.12
2018-06-20T04:54:04.854Z,95637.70
2018-06-20T04:56:34.112Z,95635.68
2018-06-20T04:59:03.586Z,95631.13
2018-06-20T05:01:32.849Z,95638.70
2018-06-20T05:04:02.043Z,95637.70
2018-06-20T05:06:31.269Z,95639.19
2018-06-20T05:09:02.115Z,95640.49
2018-06-20T05:11:32.027Z,95634.34
2018-06-20T05:14:01.271Z,95638.28
2018-06-20T05:16:30.447Z,95641.58
2018-06-20T05:18:59.643Z,95644.41
2018-06-20T05:21:28.855Z,95647.31
2018-06-20T05:23:58.072Z,95642.35
2018-06-20T05:26:27.255Z,95644.58
2018-06-20T05:28:56.434Z,95641.61
2018-06-20T05:31:25.631Z,95631.78
2018-06-20T05:33:54.822Z,95637.62
2018-06-20T05:36:24.005Z,95636.66
2018-06-20T05:38:53.262Z,95632.21
2018-06-20T05:41:22.495Z,95638.20
2018-06-20T05:43:51.994Z,95631.73
2018-06-20T05:46:21.203Z,95628.59
2018-06-20T05:48:50.531Z,95628.00
2018-06-20T05:51:19.853Z,95627.48
2018-06-20T05:53:49.099Z,95624.39
2018-06-20T05:56:18.395Z,95628.90
2018-06-20T05:58:47.612Z,95624.88
2018-06-20T06:01:17.003Z,95625.95
2018-06-20T06:03:46.558Z,95627.55
2018-06-20T06:06:16.743Z,95623.19
2018-06-20T06:08:47.193Z,95618.09
2018-06-20T06:11:16.389Z,95613.25
2018-06-20T06:13:45.587Z,95614.88
2018-06-20T06:16:14.774Z,95609.14
2018-06-20T06:18:43.999Z,95609.03
2018-06-20T06:21:13.175Z,95605.17
2018-06-20T06:23:42.393Z,95607.12
2018-06-20T06:26:11.597Z,95601.83
2018-06-20T06:28:40.808Z,95599.69
2018-06-20T06:31:10.025Z,95598.02
2018-06-20T06:33:39.279Z,95600.31
2018-06-20T06:36:08.522Z,95597.80
2018-06-20T06:38:37.697Z,95606.36
2018-06-20T06:41:06.878Z,95603.73
2018-06-20T06:43:36.080Z,95602.67
2018-06-20T06:46:05.155Z,95599.80
2018-06-20T06:48:34.360Z,95591.09
2018-06-20T06:51:03.571Z,95596.24
2018-06-20T06:53:32.774Z,95590.77
2018-06-20T06:56:02.054Z,95587.08
2018-06-20T06:58:32.219Z,95592.89
2018-06-20T07:01:01.412Z,95583.03
2018-06-20T07:03:30.729Z,95584.27
2018-06-20T07:05:59.930Z,95581.70
2018-06-20T07:08:29.112Z,95573.33
2018-06-20T07:10:58.311Z,95571.89
2018-06-20T07:13:27.719Z,95566.91
2018-06-20T07:15:56.908Z,95570.95
2018-06-20T07:18:26.123Z,95578.59
2018-06-20T07:20:55.386Z,95569.81
2018-06-20T07:23:24.767Z,95566.59
2018-06-20T07:25:53.975Z,95561.59
2018-06-20T07:28:23.201Z,95560.62
2018-06-20T07:30:52.409Z,95558.00
2018-06-20T07:33:21.633Z,95556.02
2018-06-20T07:35:50.973Z,95546.30
2018-06-20T07:38:20.119Z,95556.03
2018-06-20T07:40:49.403Z,95546.12
2018-06-20T07:43:18.616Z,95549.75
2018-06-20T07:45:47.808Z,95543.30
2018-06-20T07:48:17.035Z,95541.45
2018-06-20T07:50:46.252Z,95534.14
2018-06-20T07:53:15.451Z,95531.38
2018-06-20T07:55:44.635Z,95537.77
2018-06-20T07:59:17.882Z,95535.75
2018-06-20T08:02:09.866Z,95525.52
2018-06-20T08:04:44.578Z,95536.47
2018-06-20T08:07:18.927Z,95532.69
2018-06-20T08:09:53.283Z,95529.54
2018-06-20T08:12:27.716Z,95528.63
2018-06-20T08:15:02.040Z,95524.17
2018-06-20T08:17:36.366Z,95520.67
2018-06-20T08:20:09.667Z,95526.87
2018-06-20T08:22:38.914Z,95525.09
2018-06-20T08:25:08.127Z,95522.58
2018-06-20T08:27:37.339Z,95527.83
2018-06-20T08:30:07.971Z,95523.20
2018-06-20T08:32:37.185Z,95526.98
2018-06-20T08:35:06.371Z,95520.95
2018-06-20T08:37:35.703Z,95523.59
2018-06-20T08:40:05.246Z,95520.08
2018-06-20T08:42:34.525Z,95523.91
2018-06-20T08:45:03.692Z,95526.47
2018-06-20T08:47:32.886Z,95524.80
2018-06-20T08:50:02.114Z,95515.16
2018-06-20T08:52:31.391Z,95509.44
2018-06-20T08:55:00.583Z,95511.79
2018-06-20T08:57:29.852Z,95509.83
2018-06-20T08:59:59.059Z,95505.34
2018-06-20T09:02:28.064Z,95506.45
2018-06-20T09:05:02.654Z,95508.45
2018-06-20T09:07:37.187Z,95506.22
2018-06-20T09:10:11.507Z,95504.14
2018-06-20T09:12:45.927Z,95512.39
2018-06-20T09:15:20.287Z,95501.60
2018-06-20T09:17:54.593Z,95499.65
2018-06-20T09:20:24.808Z,95499.47
2018-06-20T09:22:53.970Z,95494.47
2018-06-20T09:25:23.210Z,95496.72
2018-06-20T09:27:52.420Z,95498.42
2018-06-20T09:30:21.627Z,95502.16
2018-06-20T09:32:50.833Z,95498.06
2018-06-20T09:35:20.027Z,95501.05
2018-06-20T09:37:49.222Z,95496.73
2018-06-20T09:40:18.466Z,95497.19
2018-06-20T09:42:47.673Z,95495.76
2018-06-20T09:45:16.902Z,95497.59
2018-06-20T09:47:46.084Z,95494.09
2018-06-20T09:50:20.547Z,95495.43
2018-06-20T09:52:49.774Z,95499.62
2018-06-20T09:55:18.966Z,95493.03
2018-06-20T09:57:49.134Z,95498.64
2018-06-20T10:00:23.605Z,95482.92
2018-06-20T10:02:58.082Z,95490.81
2018-06-20T10:05:32.487Z,95487.10
2018-06-20T10:08:06.924Z,95490.60
2018-06-20T10:10:41.306Z,95484.16
2018-06-20T10:13:12.512Z,95482.92
2018-06-20T10:15:41.688Z,95475.89
2018-06-20T10:18:10.987Z,95476.03
2018-06-20T10:20:40.190Z,95475.02
2018-06-20T10:23:09.392Z,95480.75
2018-06-20T10:25:38.587Z,95475.56
2018-06-20T10:28:07.774Z,95473.63
2018-06-20T10:30:37.069Z,95468.75
2018-06-20T10:33:06.307Z,95466.32
2018-06-20T10:35:35.599Z,95466.17
2018-06-20T10:38:04.811Z,95466.51
2018-06-20T10:40:34.092Z,95468.34
2018-06-20T10:43:03.506Z,95458.13
2018-06-20T10:45:38.829Z,95462.19
2018-06-20T10:48:14.774Z,95459.97
2018-06-20T10:50:44.787Z,95461.18
2018-06-20T10:53:14.010Z,95465.81
2018-06-20T10:55:43.220Z,95459.48
2018-06-20T10:58:17.675Z,95459.05
2018-06-20T11:00:52.012Z,95459.23
2018-06-20T11:03:26.364Z,95456.05
2018-06-20T11:06:00.706Z,95448.79
2018-06-20T11:08:35.005Z,95445.80
2018-06-20T11:11:09.338Z,95445.67
2018-06-20T11:13:38.541Z,95447.45
2018-06-20T11:16:07.786Z,95445.45
2018-06-20T11:18:39.973Z,95436.47
2018-06-20T11:21:09.178Z,95438.30
2018-06-20T11:23:38.377Z,95437.91
2018-06-20T11:26:07.619Z,95431.98
2018-06-20T11:28:36.902Z,95431.89
2018-06-20T11:31:06.152Z,95430.69
2018-06-20T11:33:35.427Z,95422.91
2018-06-20T11:36:04.676Z,95418.97
2018-06-20T11:38:33.863Z,95421.80
2018-06-20T11:41:03.051Z,95413.70
2018-06-20T11:43:32.255Z,95417.42
2018-06-20T11:46:06.815Z,95408.29
2018-06-20T11:48:36.055Z,95413.08
2018-06-20T11:51:06.359Z,95400.77
2018-06-20T11:53:35.559Z,95404.42
2018-06-20T11:56:04.754Z,95400.64
2018-06-20T11:58:39.079Z,95392.14
2018-06-20T12:01:13.530Z,95391.14
2018-06-20T12:03:47.888Z,95392.45
2018-06-20T12:06:22.266Z,95398.34
2018-06-20T12:08:56.675Z,95395.78
2018-06-20T12:11:31.107Z,95389.57
2018-06-20T12:14:05.450Z,95384.62
2018-06-20T12:16:36.356Z,95380.63
2018-06-20T12:19:10.672Z,95381.93
2018-06-20T12:21:45.021Z,95386.30
2018-06-20T12:24:19.360Z,95377.89
2018-06-20T12:26:53.729Z,95373.03
2018-06-20T12:29:28.028Z,95372.14
2018-06-20T12:32:02.355Z,95382.41
2018-06-20T12:34:36.725Z,95379.13
2018-06-20T12:37:11.170Z,95375.77
2018-06-20T12:39:39.494Z,95367.03
2018-06-20T12:42:13.823Z,95371.14
2018-06-20T12:45:18.634Z,95368.71
2018-06-20T12:47:50.361Z,95362.53
2018-06-20T12:50:22.334Z,95367.77
2018-06-20T12:52:51.539Z,95358.67
2018-06-20T12:55:20.739Z,95351.17
2018-06-20T12:57:50.074Z,95355.81
2018-06-20T13:00:19.255Z,95358.19
2018-06-20T13:02:48.475Z,95353.75
2018-06-20T13:05:17.883Z,95350.16
2018-06-20T13:07:47.070Z,95346.27
2018-06-20T13:10:16.260Z,95345.03
2018-06-20T13:12:45.495Z,95342.24
2018-06-20T13:15:14.676Z,95339.66
2018-06-20T13:17:43.864Z,95340.07
2018-06-20T13:20:13.126Z,95344.58
2018-06-20T13:22:42.265Z,95344.45
2018-06-20T13:25:11.458Z,95336.90
2018-06-20T13:27:46.532Z,95340.55
2018-06-20T13:30:16.323Z,95343.34
2018-06-20T13:34:54.791Z,95333.67
2018-06-20T13:37:29.133Z,95338.59
2018-06-20T13:40:03.555Z,95335.05
2018-06-20T13:42:37.920Z,95320.14
2018-06-20T13:46:16.331Z,95330.53
2018-06-20T13:48:45.712Z,95326.50
2018-06-20T13:51:14.903Z,95326.95
2018-06-20T13:53:44.152Z,95320.00
2018-06-20T13:56:13.359Z,95316.62
2018-06-20T13:58:42.542Z,95329.82
2018-06-20T14:01:11.974Z,95325.33
2018-06-20T14:03:41.203Z,95320.39
2018-06-20T14:06:10.454Z,95324.06
2018-06-20T14:08:39.675Z,95314.89
2018-06-20T14:11:08.854Z,95321.45
2018-06-20T14:13:38.243Z,95318.53
2018-06-20T14:16:07.471Z,95309.93
2018-06-20T14:18:36.700Z,95322.12
2018-06-20T14:21:11.242Z,95319.86
2018-06-20T14:23:40.426Z,95312.14
2018-06-20T14:26:09.710Z,95310.26
2018-06-20T14:28:38.888Z,95311.14
2018-06-20T14:31:13.398Z,95304.01
2018-06-20T14:33:47.742Z,95300.82
2018-06-20T14:36:22.225Z,95303.43
2018-06-20T14:38:56.640Z,95296.46
2018-06-20T14:41:26.108Z,95302.62
2018-06-20T14:44:00.565Z,95299.08
2018-06-20T14:46:31.478Z,95290.25
2018-06-20T14:49:01.078Z,95292.19
2018-06-20T14:51:30.362Z,95289.38
2018-06-20T14:53:59.571Z,95293.47
2018-06-20T14:56:28.745Z,95288.88
2018-06-20T14:58:57.962Z,95284.14
2018-06-20T15:01:27.170Z,95283.13
2018-06-20T15:03:56.405Z,95284.79
2018-06-20T15:06:25.852Z,95283.30
2018-06-20T15:08:55.068Z,95284.66
2018-06-20T15:11:24.385Z,95283.30
2018-06-20T15:13:53.599Z,95285.98
2018-06-20T15:16:28.173Z,95272.48
2018-06-20T15:18:57.442Z,95273.06
2018-06-20T15:21:26.646Z,95273.54
2018-06-20T15:23:55.956Z,95272.44
2018-06-20T15:26:30.391Z,95266.24
2018-06-20T15:29:04.710Z,95267.33
2018-06-20T15:31:39.013Z,95266.59
2018-06-20T15:34:13.397Z,95261.34
2018-06-20T15:36:47.699Z,95260.30
2018-06-20T15:39:16.886Z,95255.95
2018-06-20T15:41:46.120Z,95257.34
2018-06-20T15:44:15.324Z,95250.13
2018-06-20T15:46:44.537Z,95255.41
2018-06-20T15:49:13.769Z,95250.52
2018-06-20T15:51:43.030Z,95242.81
2018-06-20T15:54:12.237Z,95244.24
2018-06-20T15:56:41.475Z,95238.30
2018-06-20T15:59:10.653Z,95238.53
2018-06-20T16:01:39.871Z,95236.62
2018-06-20T16:04:09.262Z,95234.46
2018-06-20T16:06:38.438Z,95235.49
2018-06-20T16:09:13.627Z,95242.23
2018-06-20T16:11:42.818Z,95240.67
2018-06-20T16:14:12.222Z,95239.66
2018-06-20T16:16:41.398Z,95239.11
2018-06-20T16:19:15.861Z,95241.50
2018-06-20T16:21:50.374Z,95235.36
2018-06-20T16:24:24.775Z,95235.86
2018-06-20T16:26:59.061Z,95235.30
2018-06-20T16:29:33.377Z,95235.02
2018-06-20T16:32:02.611Z,95232.05
2018-06-20T16:34:31.795Z,95233.39
2018-06-20T16:37:00.978Z,95233.95
2018-06-20T16:39:30.173Z,95237.72
2018-06-20T16:41:59.223Z,95234.45
2018-06-20T16:44:28.591Z,95239.55
2018-06-20T16:46:57.839Z,95243.88
2018-06-20T16:49:27.049Z,95240.38
2018-06-20T16:51:56.253Z,95234.17
2018-06-20T16:54:25.648Z,95233.88
2018-06-20T16:56:54.851Z,95231.48
2018-06-20T16:59:24.082Z,95236.91
2018-06-20T17:01:58.542Z,95225.77
2018-06-20T17:04:27.764Z,95232.40
2018-06-20T17:06:57.015Z,95227.28
2018-06-20T17:09:26.366Z,95229.39
2018-06-20T17:12:00.726Z,95221.92
2018-06-20T17:14:35.080Z,95225.95
2018-06-20T17:17:09.426Z,95224.84
2018-06-20T17:19:44.356Z,95224.02
2018-06-20T17:51:43.671Z,95219.17
2018-06-20T17:54:12.854Z,95218.16
2018-06-20T17:56:42.086Z,95228.84
2018-06-20T17:59:11.314Z,95230.77
2018-06-20T18:01:40.530Z,95228.95
2018-06-20T18:04:09.722Z,95223.05
2018-06-20T18:06:44.302Z,95225.33
2018-06-20T18:09:18.662Z,95234.91
2018-06-20T18:11:53.210Z,95231.52
2018-06-20T18:14:27.555Z,95229.09
2018-06-20T18:16:57.486Z,95224.17
2018-06-20T18:19:26.901Z,95221.71
2018-06-20T18:21:56.138Z,95223.19
2018-06-20T18:24:25.819Z,95221.25
2018-06-20T18:26:55.434Z,95227.36
2018-06-20T18:29:39.524Z,95228.83
2018-06-20T18:32:08.879Z,95227.02
2018-06-20T18:34:38.266Z,95229.84
2018-06-20T18:37:07.455Z,95233.78
2018-06-20T18:39:41.853Z,95231.30
2018-06-20T18:42:10.990Z,95229.14
2018-06-20T18:44:40.184Z,95229.20
2018-06-20T18:47:09.404Z,95232.54
2018-06-20T18:49:38.597Z,95232.34
2018-06-20T18:52:07.790Z,95234.02
2018-06-20T18:54:36.980Z,95236.48
2018-06-20T18:57:09.533Z,95235.86
2018-06-20T18:59:43.919Z,95237.83
2018-06-20T19:02:18.178Z,95240.59
2018-06-20T19:04:52.635Z,95241.34
2018-06-20T19:07:27.074Z,95243.89
2018-06-20T19:09:56.292Z,95244.85
2018-06-20T19:12:25.498Z,95243.77
2018-06-20T19:14:54.732Z,95245.44
2018-06-20T19:17:23.886Z,95243.92
2018-06-20T19:19:53.150Z,95246.00
2018-06-20T19:22:22.294Z,95252.23
2018-06-20T19:24:51.482Z,95254.73
2018-06-20T19:27:20.731Z,95254.87
2018-06-20T19:29:49.938Z,95255.42
2018-06-20T19:32:19.130Z,95256.80
2018-06-20T19:34:48.395Z,95263.08
2018-06-20T19:37:17.583Z,95261.21
2018-06-20T19:39:50.775Z,95265.59
2018-06-20T19:42:21.830Z,95261.49
2018-06-20T19:44:51.725Z,95266.80
2018-06-20T19:47:20.833Z,95269.00
2018-06-20T19:49:50.022Z,95273.22
2018-06-20T19:52:19.230Z,95271.18
2018-06-20T19:54:48.435Z,95275.03
2018-06-20T19:57:17.634Z,95277.39
2018-06-20T19:59:46.879Z,95281.95
2018-06-20T20:02:16.115Z,95286.51
2018-06-20T20:04:45.299Z,95280.42
2018-06-20T20:07:14.517Z,95292.14
2018-06-20T20:09:43.853Z,95286.78
2018-06-20T20:12:13.045Z,95286.78
2018-06-20T20:14:42.279Z,95286.29
2018-06-20T20:17:11.467Z,95286.36
2018-06-20T20:19:41.670Z,95293.27
2018-06-20T20:22:10.871Z,95295.57
2018-06-20T20:24:40.062Z,95291.20
2018-06-20T20:27:09.294Z,95295.05
2018-06-20T20:29:38.510Z,95288.19
2018-06-20T20:32:07.714Z,95291.89
2018-06-20T20:34:36.975Z,95288.25
2018-06-20T20:37:06.242Z,95292.66
2018-06-20T20:39:35.473Z,95292.73
2018-06-20T20:42:04.703Z,95295.92
2018-06-20T20:44:33.923Z,95284.72
2018-06-20T20:47:03.343Z,95292.11
2018-06-20T20:49:32.637Z,95292.44
2018-06-20T20:52:01.823Z,95292.02
2018-06-20T20:54:31.038Z,95291.93
2018-06-20T20:57:00.298Z,95291.70
2018-06-20T20:59:29.671Z,95291.20
2018-06-20T21:01:58.888Z,95291.92
2018-06-20T21:04:28.098Z,95293.98
2018-06-20T21:06:57.299Z,95296.24
2018-06-20T21:09:26.518Z,95296.80
2018-06-20T21:11:55.708Z,95293.41
2018-06-20T21:14:24.964Z,95294.66
2018-06-20T21:16:54.172Z,95289.88
2018-06-20T21:19:23.370Z,95294.65
2018-06-20T21:21:52.636Z,95295.47
2018-06-20T21:24:21.847Z,95287.35
2018-06-20T21:26:51.047Z,95288.14
2018-06-20T21:29:20.549Z,95289.17
2018-06-20T21:31:49.771Z,95292.16
2018-06-20T21:34:18.975Z,95289.06
2018-06-20T21:36:48.216Z,95286.63
2018-06-20T21:39:17.416Z,95285.77
2018-06-20T21:41:46.627Z,95288.10
2018-06-20T21:44:15.822Z,95285.67
2018-06-20T21:46:45.048Z,95290.15
2018-06-20T21:49:14.218Z,95287.18
2018-06-20T21:51:43.521Z,95287.53
2018-06-20T21:54:12.759Z,95289.02
2018-06-20T21:56:41.955Z,95286.47
2018-06-20T21:59:11.182Z,95284.25
2018-06-20T22:01:40.396Z,95279.52
2018-06-20T22:04:10.034Z,95276.75
2018-06-20T22:06:39.242Z,95274.08
2018-06-20T22:09:09.857Z,95273.55
2018-06-20T22:11:39.158Z,95273.63
2018-06-20T22:14:09.398Z,95263.31
2018-06-20T22:16:39.066Z,95261.93
2018-06-20T22:19:08.271Z,95265.84
2018-06-20T22:21:37.470Z,95268.49
2018-06-20T22:24:07.005Z,95267.06
2018-06-20T22:26:35.961Z,95261.42
2018-06-20T22:29:05.885Z,95260.45
2018-06-20T22:31:35.110Z,95263.03
2018-06-20T22:34:04.378Z,95261.64
2018-06-20T22:36:33.708Z,95250.80
2018-06-20T22:39:02.982Z,95265.07
2018-06-20T22:41:32.211Z,95259.67
2018-06-20T22:44:01.410Z,95254.73
2018-06-20T22:46:30.598Z,95260.34
2018-06-20T22:48:59.803Z,95259.09
2018-06-20T22:51:29.454Z,95253.90
2018-06-20T22:53:58.669Z,95247.95
2018-06-20T22:56:27.895Z,95248.34
2018-06-20T22:58:57.127Z,95248.51
2018-06-20T23:01:26.330Z,95246.50
2018-06-20T23:03:58.725Z,95245.66
2018-06-20T23:06:27.939Z,95241.09
2018-06-20T23:08:57.166Z,95241.67
2018-06-20T23:11:26.380Z,95234.38
2018-06-20T23:13:55.667Z,95239.09
2018-06-20T23:16:24.875Z,95235.23
2018-06-20T23:18:54.611Z,95239.48
2018-06-20T23:21:23.890Z,95231.50
2018-06-20T23:23:53.123Z,95235.55
2018-06-20T23:26:22.339Z,95233.98
2018-06-20T23:28:51.522Z,95229.18
2018-06-20T23:31:20.824Z,95224.95
2018-06-20T23:33:50.040Z,95222.34
2018-06-20T23:36:19.267Z,95222.86
2018-06-20T23:38:48.246Z,95219.54
2018-06-20T23:41:17.438Z,95220.66
2018-06-20T23:43:46.650Z,95223.76
2018-06-20T23:46:15.927Z,95223.55
2018-06-20T23:48:45.127Z,95222.98
2018-06-20T23:51:14.427Z,95222.48
2018-06-20T23:53:43.628Z,95221.73
2018-06-20T23:56:12.845Z,95221.05
2018-06-20T23:58:42.038Z,95224.45
